createdAt,value
2018-04-01T00:00:35.237Z,33.88
2018-04-01T00:03:03.292Z,41.58
2018-04-01T00:05:30.636Z,37.10
2018-04-01T00:07:57.916Z,37.83
2018-04-01T00:10:25.219Z,37.35
2018-04-01T00:12:52.581Z,41.55
2018-04-01T00:15:19.877Z,43.05
2018-04-01T00:17:47.194Z,41.47
2018-04-01T00:20:15.483Z,42.60
2018-04-01T00:22:43.541Z,43.90
2018-04-01T00:25:10.849Z,40.33
2018-04-01T00:27:38.201Z,53.25
2018-04-01T00:30:05.482Z,45.28
2018-04-01T00:32:32.767Z,46.60
2018-04-01T00:35:00.105Z,51.37
2018-04-01T00:37:28.188Z,48.22
2018-04-01T00:39:56.238Z,49.25
2018-04-01T00:42:25.412Z,42.92
2018-04-01T00:44:52.687Z,44.05
2018-04-01T00:47:20.746Z,39.55
2018-04-01T00:49:48.136Z,46.75
2018-04-01T00:52:15.423Z,43.95
2018-04-01T00:54:42.713Z,47.45
2018-04-01T00:57:10.813Z,49.03
2018-04-01T00:59:38.127Z,45.08
2018-04-01T01:02:06.183Z,43.38
2018-04-01T01:04:33.535Z,48.38
2018-04-01T01:07:00.823Z,40.30
2018-04-01T01:09:28.096Z,41.58
2018-04-01T01:11:55.440Z,42.22
2018-04-01T01:14:22.716Z,38.53
2018-04-01T01:16:50.000Z,42.13
2018-04-01T01:19:18.114Z,40.10
2018-04-01T01:21:45.417Z,40.97
2018-04-01T01:24:12.719Z,40.53
2018-04-01T01:26:40.061Z,38.58
2018-04-01T01:29:07.348Z,34.78
2018-04-01T01:31:34.643Z,46.58
2018-04-01T01:34:02.752Z,45.22
2018-04-01T01:36:30.054Z,34.58
2018-04-01T01:38:58.104Z,43.87
2018-04-01T01:41:25.487Z,38.47
2018-04-01T01:43:52.800Z,38.45
2018-04-01T01:46:20.093Z,33.40
2018-04-01T01:48:47.431Z,35.92
2018-04-01T01:51:15.484Z,32.35
2018-04-01T01:53:43.551Z,34.03
2018-04-01T01:56:10.944Z,32.35
2018-04-01T01:58:38.253Z,34.13
2018-04-01T02:01:06.328Z,38.72
2018-04-01T02:03:33.684Z,35.20
2018-04-01T02:06:00.964Z,41.37
2018-04-01T02:08:28.254Z,49.42
2018-04-01T02:10:55.606Z,45.95
2018-04-01T02:13:22.900Z,50.33
2018-04-01T02:15:50.963Z,41.95
2018-04-01T02:18:19.084Z,32.30
2018-04-01T02:20:46.388Z,44.85
2018-04-01T02:23:14.444Z,37.97
2018-04-01T02:25:42.579Z,39.17
2018-04-01T02:28:09.872Z,41.20
2018-04-01T02:30:37.925Z,40.30
2018-04-01T02:33:05.271Z,40.97
2018-04-01T02:35:32.569Z,43.08
2018-04-01T02:37:59.868Z,39.03
2018-04-01T02:40:27.237Z,48.55
2018-04-01T02:42:54.845Z,49.95
2018-04-01T02:45:22.196Z,38.17
2018-04-01T02:47:49.543Z,40.03
2018-04-01T02:50:16.845Z,39.60
2018-04-01T02:52:44.971Z,32.50
2018-04-01T02:55:12.323Z,39.15
2018-04-01T02:57:39.612Z,43.92
2018-04-01T03:00:06.910Z,42.35
2018-04-01T03:02:34.298Z,36.83
2018-04-01T03:05:01.599Z,37.65
2018-04-01T03:07:28.899Z,38.60
2018-04-01T03:09:56.248Z,36.85
2018-04-01T03:12:23.559Z,30.45
2018-04-01T03:14:50.889Z,35.55
2018-04-01T03:17:18.999Z,27.87
2018-04-01T03:19:46.308Z,31.77
2018-04-01T03:22:14.398Z,28.85
2018-04-01T03:24:42.528Z,31.73
2018-04-01T03:27:09.836Z,37.05
2018-04-01T03:29:37.145Z,30.62
2018-04-01T03:32:04.484Z,28.05
2018-04-01T03:34:31.804Z,27.48
2018-04-01T03:36:59.124Z,29.33
2018-04-01T03:39:26.468Z,28.87
2018-04-01T03:41:54.540Z,29.77
2018-04-01T03:44:22.605Z,31.30
2018-04-01T03:46:50.220Z,30.80
2018-04-01T03:49:17.518Z,27.48
2018-04-01T03:51:45.612Z,24.25
2018-04-01T03:54:12.976Z,24.75
2018-04-01T03:56:40.289Z,25.05
2018-04-01T03:59:08.376Z,21.20
2018-04-01T04:01:35.724Z,26.65
2018-04-01T04:04:03.037Z,27.25
2018-04-01T04:06:30.763Z,27.70
2018-04-01T04:08:58.153Z,28.40
2018-04-01T04:11:25.473Z,21.25
2018-04-01T04:13:52.795Z,26.05
2018-04-01T04:16:20.147Z,28.65
2018-04-01T04:18:47.467Z,27.83
2018-04-01T04:21:15.562Z,31.98
2018-04-01T04:23:42.921Z,32.03
2018-04-01T04:26:10.237Z,27.77
2018-04-01T04:28:37.552Z,26.42
2018-04-01T04:31:04.905Z,25.65
2018-04-01T04:33:32.200Z,29.48
2018-04-01T04:36:00.266Z,26.70
2018-04-01T04:38:28.848Z,30.58
2018-04-01T04:40:56.914Z,25.17
2018-04-01T04:43:24.990Z,29.42
2018-04-01T04:45:53.106Z,27.33
2018-04-01T04:48:20.444Z,22.10
2018-04-01T04:50:47.732Z,25.25
2018-04-01T04:53:15.078Z,26.30
2018-04-01T04:55:42.410Z,26.30
2018-04-01T04:58:09.717Z,21.52
2018-04-01T05:00:37.836Z,26.48
2018-04-01T05:03:05.124Z,22.13
2018-04-01T05:05:33.194Z,22.83
2018-04-01T05:08:00.548Z,20.08
2018-04-01T05:10:28.640Z,21.27
2018-04-01T05:12:56.704Z,17.95
2018-04-01T05:15:24.861Z,21.77
2018-04-01T05:17:52.948Z,16.20
2018-04-01T05:20:20.279Z,19.52
2018-04-01T05:22:48.450Z,20.25
2018-04-01T05:25:16.538Z,17.83
2018-04-01T05:27:43.851Z,16.92
2018-04-01T05:30:11.223Z,20.77
2018-04-01T05:32:38.529Z,20.08
2018-04-01T05:35:06.006Z,18.70
2018-04-01T05:37:33.415Z,16.17
2018-04-01T05:40:00.726Z,22.37
2018-04-01T05:42:28.032Z,18.45
2018-04-01T05:44:55.380Z,20.52
2018-04-01T05:47:22.678Z,19.25
2018-04-01T05:49:49.989Z,18.55
2018-04-01T05:52:17.379Z,16.10
2018-04-01T05:54:44.698Z,17.75
2018-04-01T05:57:12.018Z,18.40
2018-04-01T05:59:39.379Z,15.88
2018-04-01T06:02:06.702Z,17.23
2018-04-01T06:04:34.762Z,17.60
2018-04-01T06:07:02.117Z,19.80
2018-04-01T06:09:29.416Z,20.08
2018-04-01T06:11:56.754Z,25.77
2018-04-01T06:14:24.116Z,18.60
2018-04-01T06:16:51.399Z,20.40
2018-04-01T06:19:18.715Z,23.08
2018-04-01T06:21:46.078Z,23.73
2018-04-01T06:24:14.010Z,26.95
2018-04-01T06:26:42.088Z,23.92
2018-04-01T06:29:10.733Z,18.75
2018-04-01T06:31:38.305Z,25.62
2018-04-01T06:34:05.774Z,22.13
2018-04-01T06:36:33.970Z,27.23
2018-04-01T06:39:01.866Z,23.00
2018-04-01T06:41:29.620Z,24.42
2018-04-01T06:43:57.156Z,28.50
2018-04-01T06:46:24.499Z,31.62
2018-04-01T06:48:51.874Z,34.33
2018-04-01T06:51:19.272Z,26.90
2018-04-01T06:53:47.126Z,26.87
2018-04-01T06:56:15.279Z,34.70
2018-04-01T06:58:42.704Z,31.25
2018-04-01T07:01:10.127Z,27.27
2018-04-01T07:03:38.208Z,30.62
2018-04-01T07:06:05.987Z,40.33
2018-04-01T07:08:33.365Z,34.22
2018-04-01T07:11:00.691Z,40.70
2018-04-01T07:13:28.110Z,30.10
2018-04-01T07:15:57.094Z,39.00
2018-04-01T07:18:25.260Z,32.45
2018-04-01T07:20:52.867Z,29.27
2018-04-01T07:23:20.401Z,28.02
2018-04-01T07:25:47.770Z,30.42
2018-04-01T07:28:15.174Z,31.87
2018-04-01T07:30:43.317Z,27.15
2018-04-01T07:33:11.528Z,22.40
2018-04-01T07:35:39.781Z,24.90
2018-04-01T07:38:07.148Z,31.45
2018-04-01T07:40:34.471Z,30.50
2018-04-01T07:43:01.867Z,26.95
2018-04-01T07:45:29.960Z,28.42
2018-04-01T07:47:57.279Z,19.58
2018-04-01T07:50:25.441Z,29.65
2018-04-01T07:52:53.558Z,33.90
2018-04-01T07:55:20.889Z,30.85
2018-04-01T07:57:49.021Z,35.83
2018-04-01T08:00:16.361Z,36.78
2018-04-01T08:02:44.599Z,34.25
2018-04-01T08:05:11.955Z,31.52
2018-04-01T08:07:39.274Z,29.75
2018-04-01T08:10:07.363Z,31.83
2018-04-01T08:12:34.750Z,32.65
2018-04-01T08:15:02.072Z,29.83
2018-04-01T08:17:29.388Z,30.42
2018-04-01T08:19:56.744Z,32.50
2018-04-01T08:22:24.084Z,31.33
2018-04-01T08:24:51.394Z,29.98
2018-04-01T08:27:19.510Z,27.05
2018-04-01T08:29:46.844Z,26.77
2018-04-01T08:32:14.166Z,28.83
2018-04-01T08:34:41.553Z,23.98
2018-04-01T08:37:08.873Z,23.27
2018-04-01T08:39:36.186Z,23.35
2018-04-01T08:42:04.351Z,26.15
2018-04-01T08:44:32.456Z,26.98
2018-04-01T08:46:59.775Z,25.67
2018-04-01T08:49:27.961Z,28.65
2018-04-01T08:51:56.081Z,28.38
2018-04-01T08:54:23.430Z,22.40
2018-04-01T08:56:50.819Z,29.02
2018-04-01T08:59:18.198Z,23.05
2018-04-01T09:01:45.516Z,23.52
2018-04-01T09:04:12.883Z,26.40
2018-04-01T09:06:40.268Z,20.50
2018-04-01T09:09:07.616Z,18.40
2018-04-01T09:11:35.029Z,19.45
2018-04-01T09:14:02.358Z,19.00
2018-04-01T09:16:29.717Z,25.75
2018-04-01T09:18:57.100Z,28.00
2018-04-01T09:21:24.439Z,22.75
2018-04-01T09:23:51.761Z,22.25
2018-04-01T09:26:19.166Z,25.95
2018-04-01T09:28:46.473Z,28.73
2018-04-01T09:31:13.762Z,30.90
2018-04-01T09:33:41.875Z,28.10
2018-04-01T09:36:09.181Z,27.45
2018-04-01T09:38:37.247Z,32.28
2018-04-01T09:41:04.610Z,23.20
2018-04-01T09:43:32.688Z,22.62
2018-04-01T09:45:59.987Z,26.17
2018-04-01T09:48:27.390Z,24.63
2018-04-01T09:50:55.238Z,19.98
2018-04-01T09:53:22.574Z,19.90
2018-04-01T09:55:49.942Z,20.00
2018-04-01T09:58:17.270Z,21.42
2018-04-01T10:00:49.026Z,20.35
2018-04-01T10:03:16.873Z,22.83
2018-04-01T10:05:44.680Z,23.90
2018-04-01T10:08:12.527Z,19.73
2018-04-01T10:10:40.381Z,22.27
2018-04-01T10:13:08.184Z,20.27
2018-04-01T10:15:36.724Z,22.13
2018-04-01T10:18:04.592Z,25.37
2018-04-01T10:20:32.404Z,26.67
2018-04-01T10:23:00.174Z,23.83
2018-04-01T10:25:28.013Z,27.05
2018-04-01T10:27:56.573Z,22.33
2018-04-01T10:30:24.505Z,24.02
2018-04-01T10:32:52.352Z,19.60
2018-04-01T10:35:20.121Z,19.27
2018-04-01T10:37:47.894Z,24.42
2018-04-01T10:40:15.739Z,17.65
2018-04-01T10:42:43.521Z,17.80
2018-04-01T10:45:11.307Z,19.65
2018-04-01T10:47:39.289Z,16.52
2018-04-01T10:50:08.026Z,17.98
2018-04-01T10:52:35.812Z,15.65
2018-04-01T10:55:03.233Z,18.37
2018-04-01T10:57:30.543Z,15.45
2018-04-01T10:59:57.822Z,21.40
2018-04-01T11:02:25.163Z,18.48
2018-04-01T11:04:52.454Z,19.25
2018-04-01T11:07:19.741Z,12.55
2018-04-01T11:09:47.868Z,18.05
2018-04-01T11:12:15.185Z,16.02
2018-04-01T11:14:42.487Z,17.75
2018-04-01T11:17:09.840Z,16.50
2018-04-01T11:19:37.143Z,18.83
2018-04-01T11:22:04.448Z,19.70
2018-04-01T11:24:31.806Z,27.10
2018-04-01T11:27:00.009Z,23.40
2018-04-01T11:29:28.062Z,22.10
2018-04-01T11:31:56.185Z,21.50
2018-04-01T11:34:23.475Z,19.37
2018-04-01T11:36:50.800Z,16.92
2018-04-01T11:39:18.151Z,18.08
2018-04-01T11:41:45.438Z,18.42
2018-04-01T11:44:13.482Z,19.40
2018-04-01T11:46:40.832Z,20.80
2018-04-01T11:49:08.730Z,18.62
2018-04-01T11:51:36.424Z,21.95
2018-04-01T11:54:03.866Z,16.77
2018-04-01T11:56:32.088Z,18.23
2018-04-01T11:59:00.157Z,17.00
2018-04-01T12:01:29.358Z,18.85
2018-04-01T12:03:57.968Z,15.77
2018-04-01T12:06:30.452Z,14.52
2018-04-01T12:09:04.483Z,15.82
2018-04-01T12:11:36.419Z,14.85
2018-04-01T12:14:08.266Z,13.30
2018-04-01T12:16:35.714Z,16.83
2018-04-01T12:19:03.367Z,12.43
2018-04-01T12:21:30.775Z,11.85
2018-04-01T12:23:58.374Z,15.23
2018-04-01T12:26:26.599Z,11.32
2018-04-01T12:28:53.993Z,11.38
2018-04-01T12:31:21.342Z,10.05
2018-04-01T12:33:49.300Z,12.23
2018-04-01T12:36:16.660Z,11.38
2018-04-01T12:38:43.987Z,33.95
2018-04-01T12:41:11.325Z,27.87
2018-04-01T12:43:39.963Z,38.50
2018-04-01T12:46:07.363Z,19.98
2018-04-01T12:48:35.513Z,56.85
2018-04-01T12:51:04.148Z,40.05
2018-04-01T12:53:31.575Z,11.70
2018-04-01T12:55:58.986Z,11.45
2018-04-01T12:58:27.368Z,9.65
2018-04-01T13:00:55.918Z,9.95
2018-04-01T13:03:24.047Z,10.20
2018-04-01T13:05:52.048Z,9.40
2018-04-01T13:08:24.324Z,12.90
2018-04-01T13:10:53.111Z,10.00
2018-04-01T13:13:20.509Z,12.95
2018-04-01T13:15:50.808Z,9.75
2018-04-01T13:20:53.167Z,9.25
2018-04-01T13:23:22.159Z,7.30
2018-04-01T13:28:22.203Z,9.18
2018-04-01T13:30:55.831Z,10.65
2018-04-01T13:33:26.816Z,10.75
2018-04-01T13:35:57.089Z,9.98
2018-04-01T13:38:30.935Z,8.25
2018-04-01T13:41:00.504Z,8.63
2018-04-01T13:43:30.889Z,9.07
2018-04-01T13:46:01.813Z,7.32
2018-04-01T13:48:34.905Z,7.62
2018-04-01T13:51:06.834Z,7.97
2018-04-01T13:53:35.739Z,7.85
2018-04-01T13:56:03.678Z,8.48
2018-04-01T14:01:17.956Z,7.30
2018-04-01T14:03:54.308Z,7.72
2018-04-01T14:14:57.168Z,7.20
2018-04-01T14:17:33.777Z,6.75
2018-04-01T14:20:07.086Z,7.68
2018-04-01T14:27:53.835Z,7.57
2018-04-01T14:30:25.636Z,6.93
2018-04-01T14:33:18.019Z,8.77
2018-04-01T14:38:28.416Z,6.82
2018-04-01T14:43:50.284Z,9.35
2018-04-01T14:46:28.493Z,7.32
2018-04-01T14:49:00.737Z,9.07
2018-04-01T15:02:38.602Z,7.57
2018-04-01T15:23:31.235Z,9.98
2018-04-01T15:26:34.494Z,9.23
2018-04-01T15:32:24.720Z,7.57
2018-04-01T15:34:54.560Z,7.40
2018-04-01T15:37:25.283Z,7.30
2018-04-01T15:40:00.404Z,7.70
2018-04-01T15:45:52.851Z,7.45
